Time;durP1;ratioP1;P1;durP2;ratioP2;P2;SDS_P1;SDS_P2;PMS_P1;PMS_P2;Temp;Humidity;BMP_temperature;BMP_pressure;BME280_temperature;BME280_humidity;BME280_pressure;Samples;Min_cycle;Max_cycle;Signal;HPM_P1;HPM_P2
2021/04/29 00:01:02;;;;;;;49.70;42.95;;;17.00;61.70;;;;;;5050594;28;20044;-62
2021/04/29 00:03:28;;;;;;;52.47;46.42;;;17.00;62.10;;;;;;5056048;28;20123;-62
2021/04/29 00:05:54;;;;;;;55.17;47.05;;;17.00;62.40;;;;;;5040485;28;20084;-64
2021/04/29 00:08:19;;;;;;;58.58;48.30;;;17.10;62.50;;;;;;5046810;28;20576;-64
2021/04/29 00:10:45;;;;;;;56.55;48.75;;;17.10;62.60;;;;;;5057118;28;20044;-64
2021/04/29 00:13:11;;;;;;;61.60;50.00;;;17.10;62.90;;;;;;5063506;28;20048;-64
2021/04/29 00:15:36;;;;;;;58.67;49.63;;;17.00;63.10;;;;;;5054573;28;20041;-63
2021/04/29 00:18:02;;;;;;;61.58;50.60;;;17.00;63.60;;;;;;5041984;28;20521;-64
2021/04/29 00:20:28;;;;;;;56.85;48.67;;;17.00;63.50;;;;;;5060304;28;20461;-64
2021/04/29 00:22:53;;;;;;;56.92;48.10;;;17.10;63.70;;;;;;5041691;28;20049;-64
2021/04/29 00:25:19;;;;;;;59.92;49.42;;;17.00;63.80;;;;;;5036722;28;20110;-63
2021/04/29 00:27:45;;;;;;;57.20;49.10;;;17.00;64.10;;;;;;5056456;28;20025;-63
2021/04/29 00:30:11;;;;;;;57.08;49.25;;;17.00;64.30;;;;;;5062728;28;20604;-63
2021/04/29 00:32:38;;;;;;;55.85;48.88;;;17.00;64.40;;;;;;5047277;28;20041;-64
2021/04/29 00:35:05;;;;;;;64.05;51.08;;;17.00;64.80;;;;;;5055983;28;20048;-64
2021/04/29 00:37:30;;;;;;;57.72;49.63;;;17.00;64.70;;;;;;5057243;28;20037;-64
2021/04/29 00:39:56;;;;;;;60.28;52.45;;;17.00;64.60;;;;;;5060508;28;20040;-64
2021/04/29 00:42:22;;;;;;;57.05;49.53;;;17.00;65.00;;;;;;5051696;28;20482;-64
2021/04/29 00:44:47;;;;;;;63.13;54.22;;;17.00;65.30;;;;;;5053406;28;20486;-64
2021/04/29 00:47:13;;;;;;;65.35;53.05;;;17.00;65.20;;;;;;5037951;28;20682;-64
2021/04/29 00:49:39;;;;;;;60.28;51.28;;;17.00;65.30;;;;;;5042717;28;20039;-64
2021/04/29 00:52:05;;;;;;;61.40;52.17;;;17.10;65.40;;;;;;5042477;28;20037;-64
2021/04/29 00:54:31;;;;;;;62.88;54.75;;;17.10;65.40;;;;;;5044589;28;20035;-64
2021/04/29 00:56:56;;;;;;;61.17;53.00;;;17.00;65.50;;;;;;5042992;28;20037;-63
2021/04/29 00:59:23;;;;;;;60.78;51.58;;;17.00;65.40;;;;;;5054697;28;20063;-64
2021/04/29 01:01:57;;;;;;;56.88;50.10;;;17.00;65.40;;;;;;5067276;28;20025;-64
2021/04/29 01:04:35;;;;;;;59.03;50.53;;;17.00;65.60;;;;;;5023616;28;20123;-63
2021/04/29 01:07:13;;;;;;;58.97;51.72;;;17.00;65.90;;;;;;5048233;28;20036;-64
2021/04/29 01:09:47;;;;;;;60.83;52.85;;;17.00;66.10;;;;;;5039204;28;20044;-64
2021/04/29 01:12:20;;;;;;;58.78;51.65;;;17.00;65.70;;;;;;5046580;28;20497;-64
2021/04/29 01:14:50;;;;;;;64.25;54.40;;;17.00;65.80;;;;;;5043304;28;20132;-64
2021/04/29 01:17:17;;;;;;;64.82;53.08;;;17.00;65.80;;;;;;5064266;28;20060;-64
2021/04/29 01:19:47;;;;;;;66.57;53.10;;;17.00;65.50;;;;;;5025586;28;20064;-64
2021/04/29 01:22:14;;;;;;;64.93;54.47;;;17.00;65.40;;;;;;5035138;28;20041;-64
2021/04/29 01:24:57;;;;;;;68.57;56.55;;;17.00;65.60;;;;;;5041166;28;20449;-63
2021/04/29 01:27:24;;;;;;;64.95;54.30;;;17.00;65.80;;;;;;5044270;28;20040;-63
2021/04/29 01:29:51;;;;;;;63.53;55.83;;;17.00;65.60;;;;;;5033296;28;20044;-64
2021/04/29 01:32:17;;;;;;;64.85;55.63;;;17.00;66.00;;;;;;5060689;28;20032;-64
2021/04/29 01:34:44;;;;;;;64.38;56.33;;;17.00;66.10;;;;;;5053560;28;20035;-64
2021/04/29 01:37:10;;;;;;;63.28;52.78;;;16.90;66.10;;;;;;5063893;28;20056;-63
2021/04/29 01:39:37;;;;;;;64.05;54.67;;;16.90;66.00;;;;;;5067756;28;20495;-64
2021/04/29 01:42:04;;;;;;;65.32;55.05;;;17.00;66.20;;;;;;5046975;28;20045;-63
2021/04/29 01:44:30;;;;;;;63.55;53.45;;;16.90;66.30;;;;;;5056602;28;20041;-63
2021/04/29 01:46:59;;;;;;;63.38;54.28;;;17.00;66.50;;;;;;5055429;28;20063;-63
2021/04/29 01:49:25;;;;;;;64.40;55.05;;;16.90;66.60;;;;;;5056375;28;20061;-63
2021/04/29 01:51:52;;;;;;;65.40;54.08;;;17.00;66.50;;;;;;5043873;28;20406;-63
2021/04/29 01:54:21;;;;;;;60.92;52.45;;;16.90;66.60;;;;;;5047973;28;20139;-63
2021/04/29 01:56:47;;;;;;;62.50;53.58;;;16.90;66.40;;;;;;5055621;28;20045;-64
2021/04/29 01:59:15;;;;;;;64.93;56.17;;;16.90;66.50;;;;;;5050669;28;20424;-63
2021/04/29 02:01:43;;;;;;;59.83;51.97;;;16.90;66.60;;;;;;5054027;28;20091;-63
2021/04/29 02:04:11;;;;;;;61.83;52.55;;;17.00;66.80;;;;;;5068373;28;20465;-63
2021/04/29 02:06:37;;;;;;;66.05;54.80;;;16.90;66.50;;;;;;5049666;28;20045;-63
2021/04/29 02:09:04;;;;;;;64.28;54.13;;;16.90;66.90;;;;;;5058801;28;20084;-63
2021/04/29 02:11:35;;;;;;;62.97;54.20;;;16.90;67.10;;;;;;5063483;28;20040;-63
2021/04/29 02:14:02;;;;;;;65.47;56.67;;;16.90;67.20;;;;;;5059044;28;20044;-64
2021/04/29 02:16:33;;;;;;;63.55;53.00;;;16.80;67.20;;;;;;5062695;28;20044;-63
2021/04/29 02:19:01;;;;;;;68.15;55.97;;;16.90;67.50;;;;;;5055726;28;20049;-64
2021/04/29 02:21:27;;;;;;;62.17;53.38;;;16.80;67.40;;;;;;5050737;28;20487;-63
2021/04/29 02:23:53;;;;;;;63.30;53.38;;;16.80;67.20;;;;;;5058887;28;20040;-63
2021/04/29 02:26:19;;;;;;;62.83;54.58;;;16.90;67.10;;;;;;5050452;28;20429;-63
2021/04/29 02:28:46;;;;;;;58.13;48.92;;;16.80;67.00;;;;;;5051938;28;20477;-63
2021/04/29 02:31:12;;;;;;;61.45;52.33;;;16.80;66.90;;;;;;5065376;28;20056;-63
2021/04/29 02:33:38;;;;;;;61.00;51.85;;;16.70;67.10;;;;;;5054266;28;20105;-63
2021/04/29 02:36:05;;;;;;;60.72;51.88;;;16.70;67.30;;;;;;5055545;28;20068;-63
2021/04/29 02:38:33;;;;;;;65.75;54.08;;;16.70;67.20;;;;;;5050601;28;20046;-63
2021/04/29 02:41:00;;;;;;;64.15;53.40;;;16.70;67.40;;;;;;5072016;28;20545;-64
2021/04/29 02:43:26;;;;;;;58.08;51.40;;;16.70;67.50;;;;;;5048287;28;20077;-63
2021/04/29 02:45:52;;;;;;;61.97;52.60;;;16.80;67.40;;;;;;5058463;28;20044;-64
2021/04/29 02:48:18;;;;;;;60.03;51.28;;;16.70;67.50;;;;;;5061676;28;20033;-64
2021/04/29 02:50:44;;;;;;;62.10;52.17;;;16.70;67.20;;;;;;5072252;28;20072;-64
2021/04/29 02:53:14;;;;;;;61.20;52.92;;;16.70;67.80;;;;;;5060416;28;20064;-64
2021/04/29 02:55:42;;;;;;;61.13;51.97;;;16.70;68.00;;;;;;5051984;28;20094;-64
2021/04/29 02:58:09;;;;;;;63.75;54.65;;;16.60;67.80;;;;;;5052944;28;22500;-63
2021/04/29 03:00:36;;;;;;;60.63;53.72;;;16.70;68.10;;;;;;5059869;28;20033;-64
2021/04/29 03:03:03;;;;;;;60.92;51.88;;;16.70;68.00;;;;;;5057381;28;20372;-64
2021/04/29 03:05:28;;;;;;;63.40;52.90;;;16.70;68.10;;;;;;5030971;28;20037;-63
2021/04/29 03:07:54;;;;;;;61.58;51.50;;;16.70;68.20;;;;;;5052225;28;20491;-64
2021/04/29 03:10:21;;;;;;;56.22;48.88;;;16.70;68.30;;;;;;5049873;28;20558;-64
2021/04/29 03:12:47;;;;;;;52.85;46.10;;;16.60;68.30;;;;;;5055981;28;20063;-64
2021/04/29 03:15:13;;;;;;;59.70;50.03;;;16.60;68.50;;;;;;5062858;28;20104;-63
2021/04/29 03:17:39;;;;;;;57.50;49.38;;;16.60;68.50;;;;;;5069624;28;20567;-63
2021/04/29 03:20:06;;;;;;;57.80;49.17;;;16.60;68.60;;;;;;5053053;28;20126;-63
2021/04/29 03:22:32;;;;;;;57.17;49.10;;;16.50;68.80;;;;;;5048631;28;20033;-63
2021/04/29 03:24:58;;;;;;;57.90;47.85;;;16.50;68.60;;;;;;5036383;28;20049;-63
2021/04/29 03:27:24;;;;;;;56.65;48.90;;;16.50;69.00;;;;;;5055335;28;20086;-63
2021/04/29 03:29:51;;;;;;;56.63;49.40;;;16.50;68.30;;;;;;5054491;28;20044;-63
2021/04/29 03:32:17;;;;;;;57.50;46.80;;;16.60;68.40;;;;;;5049123;28;20080;-63
2021/04/29 03:34:43;;;;;;;56.22;48.88;;;16.60;68.60;;;;;;5044193;28;20119;-63
2021/04/29 03:37:09;;;;;;;56.67;47.97;;;16.60;68.50;;;;;;5047359;28;20179;-63
2021/04/29 03:39:34;;;;;;;56.38;48.15;;;16.60;68.50;;;;;;5056871;28;20398;-64
2021/04/29 03:42:00;;;;;;;54.92;47.22;;;16.60;68.80;;;;;;5062867;28;20091;-64
2021/04/29 03:44:26;;;;;;;54.92;47.45;;;16.60;68.70;;;;;;5057803;28;20087;-63
2021/04/29 03:46:51;;;;;;;56.85;50.20;;;16.60;68.80;;;;;;5052730;28;20042;-64
2021/04/29 03:49:17;;;;;;;61.97;50.30;;;16.60;68.70;;;;;;5056784;28;20048;-63
2021/04/29 03:51:43;;;;;;;62.03;53.05;;;16.60;68.80;;;;;;5063878;28;20044;-63
2021/04/29 03:54:09;;;;;;;62.67;54.42;;;16.60;69.30;;;;;;5067617;28;20044;-63
2021/04/29 03:56:34;;;;;;;67.53;52.90;;;16.70;69.40;;;;;;5062263;28;20044;-63
2021/04/29 03:59:00;;;;;;;61.78;53.25;;;16.50;69.70;;;;;;5043735;28;20572;-63
2021/04/29 04:01:26;;;;;;;62.17;52.50;;;16.60;69.70;;;;;;5048543;28;20084;-64
2021/04/29 04:03:51;;;;;;;64.88;53.53;;;16.60;69.90;;;;;;5054045;28;20056;-64
2021/04/29 04:06:17;;;;;;;60.03;52.47;;;16.50;70.00;;;;;;5033052;28;20033;-64
2021/04/29 04:08:42;;;;;;;58.50;49.75;;;16.60;70.10;;;;;;5056853;28;20119;-64
2021/04/29 04:11:08;;;;;;;59.30;49.75;;;16.50;70.00;;;;;;5048834;28;20059;-63
2021/04/29 04:13:36;;;;;;;52.55;46.88;;;16.60;70.00;;;;;;5055419;28;20043;-63
2021/04/29 04:16:03;;;;;;;53.88;47.55;;;16.60;69.80;;;;;;5038580;28;20056;-63
2021/04/29 04:18:29;;;;;;;55.20;47.75;;;16.60;69.30;;;;;;5046088;28;20035;-63
2021/04/29 04:20:54;;;;;;;54.33;46.97;;;16.50;69.20;;;;;;5036217;28;20048;-63
2021/04/29 04:23:20;;;;;;;53.72;46.70;;;16.50;69.30;;;;;;5054048;28;20048;-63
2021/04/29 04:25:46;;;;;;;56.65;47.30;;;16.50;69.10;;;;;;5050912;28;20064;-63
2021/04/29 04:28:11;;;;;;;52.72;46.50;;;16.50;70.00;;;;;;5045951;28;20033;-63
2021/04/29 04:30:37;;;;;;;55.38;47.15;;;16.50;69.20;;;;;;5051832;28;20036;-63
2021/04/29 04:33:03;;;;;;;57.60;49.88;;;16.40;69.30;;;;;;5042264;28;20042;-63
2021/04/29 04:35:29;;;;;;;58.55;49.85;;;16.40;69.20;;;;;;5048562;28;25974;-64
2021/04/29 04:37:55;;;;;;;61.08;50.35;;;16.40;69.40;;;;;;5050323;28;20167;-64
2021/04/29 04:40:21;;;;;;;59.03;50.08;;;16.50;69.50;;;;;;5035963;28;20063;-64
2021/04/29 04:42:47;;;;;;;61.53;51.75;;;16.50;69.60;;;;;;5059018;28;20494;-64
2021/04/29 04:45:13;;;;;;;62.15;51.97;;;16.50;69.60;;;;;;5042093;28;20041;-64
2021/04/29 04:47:39;;;;;;;60.78;51.25;;;16.40;69.90;;;;;;5044789;28;20041;-64
2021/04/29 04:50:05;;;;;;;62.38;52.42;;;16.40;70.20;;;;;;5053481;28;20044;-64
2021/04/29 04:52:31;;;;;;;60.38;53.13;;;16.30;70.20;;;;;;5034755;28;20073;-63
2021/04/29 04:54:57;;;;;;;63.30;53.47;;;16.40;70.50;;;;;;5032466;28;20084;-64
2021/04/29 04:57:23;;;;;;;65.93;54.63;;;16.30;71.10;;;;;;5035396;28;20056;-64
2021/04/29 04:59:49;;;;;;;63.67;53.53;;;16.40;71.10;;;;;;5042822;28;20391;-63
2021/04/29 05:02:15;;;;;;;61.72;54.13;;;16.50;71.70;;;;;;5036774;28;20037;-63
2021/04/29 05:04:41;;;;;;;64.30;53.88;;;16.40;71.10;;;;;;5058191;28;20071;-63
2021/04/29 05:07:07;;;;;;;65.38;53.58;;;16.40;71.10;;;;;;5047198;28;20061;-64
2021/04/29 05:09:33;;;;;;;62.72;53.65;;;16.40;71.30;;;;;;5050533;28;20438;-63
2021/04/29 05:11:59;;;;;;;61.35;52.35;;;16.50;71.00;;;;;;5047994;28;20510;-63
2021/04/29 05:14:26;;;;;;;60.83;51.30;;;16.40;71.00;;;;;;5056783;28;20032;-64
2021/04/29 05:16:52;;;;;;;60.97;51.28;;;16.40;71.10;;;;;;5053641;28;20159;-64
2021/04/29 05:19:18;;;;;;;60.70;51.35;;;16.40;71.10;;;;;;5051529;28;20055;-64
2021/04/29 05:21:44;;;;;;;61.28;51.75;;;16.40;70.90;;;;;;5027434;28;20045;-64
2021/04/29 05:24:09;;;;;;;61.70;51.28;;;16.50;70.60;;;;;;5043162;28;20409;-63
2021/04/29 05:26:35;;;;;;;59.45;50.47;;;16.40;71.00;;;;;;5058190;28;20036;-63
2021/04/29 05:29:01;;;;;;;61.13;52.97;;;16.40;70.90;;;;;;5044744;28;20029;-63
2021/04/29 05:31:27;;;;;;;62.58;52.33;;;16.50;71.10;;;;;;5058067;28;20398;-64
2021/04/29 05:33:53;;;;;;;62.10;52.10;;;16.50;71.90;;;;;;5054884;28;20047;-63
2021/04/29 05:36:18;;;;;;;68.32;57.30;;;16.50;72.50;;;;;;5047316;28;20039;-63
2021/04/29 05:38:44;;;;;;;68.45;56.08;;;16.50;73.00;;;;;;5065900;28;20032;-64
2021/04/29 05:41:10;;;;;;;69.50;56.22;;;16.50;73.20;;;;;;5051497;28;20488;-63
2021/04/29 05:43:35;;;;;;;63.20;53.13;;;16.50;72.80;;;;;;5044851;28;20080;-63
2021/04/29 05:46:01;;;;;;;61.47;53.90;;;16.60;72.70;;;;;;5045702;28;20474;-64
2021/04/29 05:48:27;;;;;;;65.28;53.75;;;16.50;72.50;;;;;;5034412;28;20490;-64
2021/04/29 05:50:52;;;;;;;62.65;52.78;;;16.50;72.90;;;;;;5062120;28;20047;-63
2021/04/29 05:53:18;;;;;;;63.63;53.03;;;16.50;72.60;;;;;;5061870;28;20439;-64
2021/04/29 05:56:37;;;;;;;62.58;53.00;;;16.50;72.60;;;;;;5051173;28;20045;-63
2021/04/29 05:59:03;;;;;;;62.88;52.10;;;16.60;72.80;;;;;;5008822;28;20076;-63
2021/04/29 06:01:29;;;;;;;63.75;52.47;;;16.50;72.40;;;;;;5007062;28;20395;-63
2021/04/29 06:03:54;;;;;;;59.22;50.22;;;16.50;72.50;;;;;;5010719;28;20039;-63
2021/04/29 06:06:20;;;;;;;62.17;49.42;;;16.50;72.30;;;;;;5009998;28;20124;-64
2021/04/29 06:08:46;;;;;;;61.22;50.97;;;16.50;72.50;;;;;;5013249;28;20124;-64
2021/04/29 06:11:12;;;;;;;62.00;50.65;;;16.50;72.40;;;;;;5011803;28;20037;-64
2021/04/29 06:13:39;;;;;;;62.80;53.67;;;16.60;72.50;;;;;;5021454;28;20088;-64
2021/04/29 06:16:05;;;;;;;67.45;51.70;;;16.60;72.40;;;;;;5017185;28;20049;-64
2021/04/29 06:18:31;;;;;;;64.95;52.50;;;16.60;72.10;;;;;;5019176;28;20052;-64
2021/04/29 06:20:57;;;;;;;63.25;51.47;;;16.50;72.40;;;;;;5013774;28;20060;-64
2021/04/29 06:23:23;;;;;;;67.38;52.33;;;16.60;72.90;;;;;;5019026;28;20034;-64
2021/04/29 06:25:48;;;;;;;67.10;52.70;;;16.70;72.00;;;;;;5013868;28;20428;-64
2021/04/29 06:28:14;;;;;;;62.72;53.55;;;16.70;72.10;;;;;;5022514;28;20087;-64
2021/04/29 06:30:41;;;;;;;61.90;51.47;;;16.70;71.90;;;;;;5012956;28;20080;-64
2021/04/29 06:33:07;;;;;;;86.40;55.17;;;16.70;72.00;;;;;;5017043;28;20466;-64
2021/04/29 06:35:33;;;;;;;62.67;49.30;;;16.80;71.60;;;;;;5014614;28;20484;-64
2021/04/29 06:37:59;;;;;;;58.50;46.72;;;16.80;71.40;;;;;;5010058;28;20095;-64
2021/04/29 06:40:25;;;;;;;56.08;46.20;;;16.90;70.80;;;;;;5020137;28;20399;-64
2021/04/29 06:42:51;;;;;;;57.72;44.90;;;16.90;70.60;;;;;;5016502;28;20038;-64
2021/04/29 06:45:16;;;;;;;83.35;46.40;;;16.90;70.50;;;;;;5022776;28;20037;-64
2021/04/29 06:47:42;;;;;;;60.58;44.22;;;17.00;70.00;;;;;;5014442;28;20043;-62
2021/04/29 06:50:09;;;;;;;92.72;50.83;;;17.00;70.00;;;;;;5010905;28;20036;-63
2021/04/29 06:52:34;;;;;;;64.57;44.85;;;17.00;70.00;;;;;;5022845;28;20037;-63
2021/04/29 06:55:01;;;;;;;70.82;47.42;;;17.00;69.50;;;;;;5009257;28;20111;-63
2021/04/29 06:57:26;;;;;;;59.78;47.13;;;17.10;69.20;;;;;;5028225;28;20132;-63
2021/04/29 06:59:52;;;;;;;61.78;48.92;;;17.20;68.50;;;;;;5035119;28;20128;-63
2021/04/29 07:02:18;;;;;;;65.43;50.40;;;17.40;68.30;;;;;;5047171;28;20124;-63
2021/04/29 07:04:44;;;;;;;61.60;48.58;;;17.40;68.40;;;;;;5058257;28;20398;-63
2021/04/29 07:07:10;;;;;;;55.97;46.40;;;17.40;67.80;;;;;;5064353;28;20035;-63
2021/04/29 07:09:35;;;;;;;64.43;49.50;;;17.50;67.30;;;;;;5065902;28;20036;-64
2021/04/29 07:12:01;;;;;;;67.63;49.03;;;17.50;67.10;;;;;;5068571;28;20173;-63
2021/04/29 07:14:27;;;;;;;63.15;46.35;;;17.60;66.80;;;;;;5064224;28;20036;-63
2021/04/29 07:16:52;;;;;;;61.35;48.47;;;17.70;66.40;;;;;;5068607;28;20490;-63
2021/04/29 07:19:18;;;;;;;61.92;51.58;;;17.60;66.40;;;;;;5028638;28;20037;-64
2021/04/29 07:21:43;;;;;;;61.55;50.80;;;17.60;66.60;;;;;;5057542;28;20075;-64
2021/04/29 07:24:09;;;;;;;66.95;49.13;;;17.50;67.00;;;;;;5052275;28;20107;-64
2021/04/29 07:26:35;;;;;;;55.67;44.30;;;17.50;67.20;;;;;;5044824;28;20048;-63
2021/04/29 07:29:02;;;;;;;53.58;44.67;;;17.50;67.10;;;;;;5053095;28;20552;-64
2021/04/29 07:31:28;;;;;;;55.92;45.03;;;17.50;66.60;;;;;;5053439;28;20083;-63
2021/04/29 07:33:53;;;;;;;56.55;43.45;;;17.50;66.90;;;;;;5047238;28;20492;-63
2021/04/29 07:36:19;;;;;;;57.95;43.63;;;17.70;66.60;;;;;;5028601;28;20084;-64
2021/04/29 07:38:45;;;;;;;47.95;40.20;;;17.70;66.00;;;;;;5048251;28;20059;-64
2021/04/29 07:41:10;;;;;;;45.67;37.20;;;17.70;66.00;;;;;;5061197;28;20375;-63
2021/04/29 07:43:36;;;;;;;45.72;36.70;;;17.70;65.70;;;;;;5051097;28;20033;-62
2021/04/29 07:46:02;;;;;;;44.45;35.97;;;17.50;66.10;;;;;;5043454;28;20048;-63
2021/04/29 07:48:28;;;;;;;49.30;37.03;;;17.70;65.70;;;;;;5052027;28;20410;-64
2021/04/29 07:50:54;;;;;;;46.17;36.50;;;17.80;65.10;;;;;;5045761;28;20045;-63
2021/04/29 07:53:21;;;;;;;43.45;35.28;;;17.90;65.10;;;;;;5060168;28;20068;-63
2021/04/29 07:55:46;;;;;;;47.75;35.65;;;17.90;64.70;;;;;;5044845;28;20048;-63
2021/04/29 07:58:12;;;;;;;45.67;35.60;;;18.00;64.40;;;;;;5051723;28;20122;-62
2021/04/29 08:00:38;;;;;;;45.88;33.97;;;17.90;64.50;;;;;;5051038;28;20049;-64
2021/04/29 08:03:04;;;;;;;50.30;33.40;;;17.80;64.40;;;;;;5025879;28;20462;-64
2021/04/29 08:05:30;;;;;;;44.00;33.85;;;17.90;64.40;;;;;;5047805;28;20398;-64
2021/04/29 08:07:57;;;;;;;41.85;32.17;;;17.80;64.00;;;;;;5045946;28;20037;-63
2021/04/29 08:10:23;;;;;;;42.45;31.63;;;17.80;64.10;;;;;;5043420;28;20087;-64
2021/04/29 08:12:49;;;;;;;38.65;30.33;;;17.70;64.20;;;;;;5040060;28;20065;-64
2021/04/29 08:15:14;;;;;;;40.40;32.55;;;17.70;64.60;;;;;;5050634;28;20115;-64
2021/04/29 08:17:40;;;;;;;40.90;31.88;;;17.80;64.50;;;;;;5049563;28;20148;-64
2021/04/29 08:20:07;;;;;;;37.72;31.77;;;17.70;64.70;;;;;;5056620;28;20090;-64
2021/04/29 08:22:32;;;;;;;40.15;31.20;;;17.60;64.80;;;;;;5051419;28;20179;-64
2021/04/29 08:24:59;;;;;;;39.67;31.17;;;17.70;64.70;;;;;;5054860;28;20190;-64
2021/04/29 08:27:25;;;;;;;39.28;32.63;;;17.80;64.10;;;;;;5047138;28;20040;-64
2021/04/29 08:29:51;;;;;;;39.13;32.20;;;17.80;64.20;;;;;;5057524;28;20037;-64
2021/04/29 08:32:17;;;;;;;35.63;31.13;;;17.90;63.50;;;;;;5033408;28;20136;-64
2021/04/29 08:34:43;;;;;;;36.60;30.85;;;17.90;63.60;;;;;;5048421;28;20120;-64
2021/04/29 08:37:09;;;;;;;35.53;30.30;;;17.80;63.40;;;;;;5047368;28;20179;-64
2021/04/29 08:39:34;;;;;;;35.40;30.20;;;17.80;63.50;;;;;;5038662;28;20033;-64
2021/04/29 08:42:01;;;;;;;37.90;30.98;;;17.80;63.60;;;;;;5055011;28;20124;-63
2021/04/29 08:44:27;;;;;;;36.92;30.98;;;17.90;63.60;;;;;;5048928;28;20037;-63
2021/04/29 08:46:53;;;;;;;41.70;32.00;;;17.80;63.20;;;;;;5053086;28;20724;-64
2021/04/29 08:49:21;;;;;;;39.45;31.08;;;17.80;63.10;;;;;;5065865;28;20454;-63
2021/04/29 08:51:49;;;;;;;41.50;32.72;;;17.90;63.40;;;;;;5053455;28;20872;-63
2021/04/29 08:54:14;;;;;;;43.10;32.60;;;17.80;63.50;;;;;;5048692;28;20526;-63
2021/04/29 08:56:40;;;;;;;43.15;32.30;;;17.80;63.60;;;;;;5044853;28;20124;-62
2021/04/29 08:59:07;;;;;;;41.30;32.33;;;17.80;63.80;;;;;;5056419;28;20128;-63
2021/04/29 09:01:44;;;;;;;41.95;34.33;;;17.70;63.80;;;;;;5047018;28;20115;-63
2021/04/29 09:04:10;;;;;;;39.88;32.65;;;17.70;64.40;;;;;;5055640;28;20044;-63
2021/04/29 09:06:36;;;;;;;37.17;31.35;;;17.70;64.10;;;;;;5059671;28;20068;-63
2021/04/29 09:09:02;;;;;;;45.05;35.13;;;17.60;64.50;;;;;;5034565;28;20515;-63
2021/04/29 09:11:28;;;;;;;43.90;34.30;;;17.50;65.10;;;;;;5045636;28;20044;-63
2021/04/29 09:13:59;;;;;;;40.80;32.35;;;17.50;65.80;;;;;;5057123;28;20942;-63
2021/04/29 09:16:43;;;;;;;41.95;33.40;;;17.50;65.80;;;;;;5055688;28;20375;-63
2021/04/29 09:19:22;;;;;;;38.63;33.10;;;17.60;69.40;;;;;;5042063;28;20044;-63
2021/04/29 09:21:48;;;;;;;45.38;34.30;;;17.60;69.40;;;;;;5046133;28;20040;-63
2021/04/29 09:24:14;;;;;;;46.63;36.35;;;17.50;69.60;;;;;;5053464;28;20513;-63
2021/04/29 09:26:40;;;;;;;44.28;36.47;;;17.50;70.80;;;;;;5061159;28;20115;-63
2021/04/29 09:29:13;;;;;;;49.78;40.15;;;17.40;71.60;;;;;;5062918;28;20032;-63
2021/04/29 09:31:44;;;;;;;49.90;41.08;;;17.40;72.40;;;;;;5040320;28;20479;-62
2021/04/29 09:34:11;;;;;;;51.63;41.22;;;17.40;73.20;;;;;;5055828;28;20033;-63
2021/04/29 09:36:43;;;;;;;46.67;39.42;;;17.40;72.60;;;;;;5048809;28;20084;-63
2021/04/29 09:39:14;;;;;;;42.72;36.33;;;17.50;72.30;;;;;;5052601;28;20035;-63
2021/04/29 09:41:45;;;;;;;64.05;56.67;;;17.40;71.80;;;;;;5045745;28;20047;-63
2021/04/29 09:44:19;;;;;;;44.33;37.00;;;17.50;73.00;;;;;;5058465;28;20068;-63
2021/04/29 09:46:48;;;;;;;49.22;39.22;;;17.40;72.10;;;;;;5054769;28;20355;-63
2021/04/29 09:49:19;;;;;;;44.45;37.38;;;17.40;73.00;;;;;;5060395;28;20063;-63
2021/04/29 09:51:46;;;;;;;52.40;40.55;;;17.50;73.50;;;;;;5049463;28;20056;-63
2021/04/29 09:54:21;;;;;;;36.45;30.27;;;17.40;73.10;;;;;;5035381;28;20131;-63
2021/04/29 09:56:55;;;;;;;36.05;31.35;;;17.40;71.20;;;;;;5052336;28;20078;-63
2021/04/29 09:59:21;;;;;;;37.28;30.85;;;17.50;71.10;;;;;;5037432;28;20081;-63
2021/04/29 10:01:47;;;;;;;40.38;32.75;;;17.40;70.80;;;;;;5057274;28;20052;-64
2021/04/29 10:04:13;;;;;;;43.55;35.33;;;17.30;70.60;;;;;;5054635;28;20036;-64
2021/04/29 10:06:38;;;;;;;45.88;37.42;;;17.40;70.80;;;;;;5059581;28;20530;-63
2021/04/29 10:09:05;;;;;;;45.45;35.83;;;17.40;70.90;;;;;;5064962;28;20116;-63
2021/04/29 10:11:31;;;;;;;46.90;36.78;;;17.40;71.20;;;;;;5044159;28;20034;-63
2021/04/29 10:14:00;;;;;;;44.58;37.17;;;17.30;71.30;;;;;;5055783;28;20131;-63
2021/04/29 10:16:29;;;;;;;45.28;35.63;;;17.40;71.30;;;;;;5033161;28;20037;-63
2021/04/29 10:18:56;;;;;;;45.20;38.00;;;17.40;71.20;;;;;;5058326;28;20412;-64
2021/04/29 10:21:23;;;;;;;45.50;39.90;;;17.50;71.40;;;;;;5032467;28;20411;-63
2021/04/29 10:23:49;;;;;;;50.88;39.28;;;17.50;71.50;;;;;;5052750;28;20403;-63
2021/04/29 10:26:26;;;;;;;49.63;38.88;;;17.50;72.10;;;;;;5051159;28;20033;-63
2021/04/29 10:29:00;;;;;;;49.50;39.13;;;17.40;72.50;;;;;;5046094;28;20071;-63
2021/04/29 10:31:30;;;;;;;49.58;40.55;;;17.50;74.10;;;;;;5043891;28;20556;-63
2021/04/29 10:33:59;;;;;;;50.10;41.10;;;17.40;73.10;;;;;;5058134;28;20140;-63
2021/04/29 10:36:40;;;;;;;45.78;38.55;;;17.40;73.40;;;;;;5045851;28;20069;-64
2021/04/29 10:39:19;;;;;;;49.60;39.35;;;17.40;73.00;;;;;;5067322;28;20075;-63
2021/04/29 10:41:49;;;;;;;48.03;38.20;;;17.30;74.10;;;;;;5045505;28;20041;-63
2021/04/29 10:44:19;;;;;;;49.38;39.17;;;17.40;73.40;;;;;;5058484;28;20037;-63
2021/04/29 10:46:48;;;;;;;59.67;49.55;;;17.40;73.60;;;;;;5054172;28;20045;-63
2021/04/29 10:49:16;;;;;;;50.95;41.33;;;17.40;73.30;;;;;;5045721;28;20037;-63
2021/04/29 10:51:45;;;;;;;47.38;37.90;;;17.40;73.00;;;;;;5057130;28;20044;-63
2021/04/29 10:54:20;;;;;;;63.63;39.38;;;17.50;72.70;;;;;;5057646;28;20037;-63
2021/04/29 10:57:06;;;;;;;106.40;44.25;;;17.50;73.90;;;;;;5045143;28;20088;-63
2021/04/29 10:59:45;;;;;;;80.97;40.95;;;17.40;73.60;;;;;;5045765;28;20064;-63
2021/04/29 11:02:21;;;;;;;69.45;32.58;;;17.50;72.90;;;;;;5052173;28;20037;-62
2021/04/29 11:04:46;;;;;;;80.93;36.72;;;17.40;72.10;;;;;;5048630;28;20590;-63
2021/04/29 11:07:13;;;;;;;55.47;33.40;;;17.30;73.20;;;;;;5045433;28;20124;-62
2021/04/29 11:09:39;;;;;;;63.35;36.05;;;17.30;73.80;;;;;;5036904;28;20490;-63
2021/04/29 11:12:07;;;;;;;46.17;37.13;;;17.30;74.70;;;;;;5046006;28;20044;-63
2021/04/29 11:14:40;;;;;;;36.65;29.02;;;17.30;75.20;;;;;;5068971;28;20081;-63
2021/04/29 11:17:06;;;;;;;53.67;30.73;;;17.30;75.70;;;;;;5065751;28;20127;-63
2021/04/29 11:19:46;;;;;;;78.95;36.25;;;17.30;74.90;;;;;;5044549;28;20171;-62
2021/04/29 11:22:24;;;;;;;54.38;29.90;;;17.30;77.60;;;;;;5065236;28;20037;-63
2021/04/29 11:24:51;;;;;;;56.13;32.30;;;17.30;75.50;;;;;;5037274;28;20052;-63
2021/04/29 11:27:38;;;;;;;65.45;33.72;;;17.30;75.50;;;;;;5045893;28;20409;-64
2021/04/29 11:30:13;;;;;;;48.83;33.50;;;17.40;77.90;;;;;;5050920;28;20036;-63
2021/04/29 11:32:51;;;;;;;43.92;32.17;;;17.40;76.20;;;;;;5052938;28;20028;-64
2021/04/29 11:35:21;;;;;;;59.53;40.72;;;17.40;76.20;;;;;;5039960;28;20049;-63
2021/04/29 11:37:47;;;;;;;56.42;39.05;;;17.30;77.30;;;;;;5062269;28;20125;-63
2021/04/29 11:40:14;;;;;;;50.00;40.22;;;17.20;78.10;;;;;;5053985;28;20538;-63
2021/04/29 11:42:44;;;;;;;52.92;38.70;;;17.00;78.40;;;;;;5047140;28;20076;-63
2021/04/29 11:45:18;;;;;;;47.88;39.30;;;17.10;78.20;;;;;;5043312;28;20052;-63
2021/04/29 11:48:00;;;;;;;53.65;38.70;;;17.20;78.20;;;;;;5062396;28;20486;-62
2021/04/29 11:51:03;;;;;;;49.63;38.53;;;17.20;78.90;;;;;;5005027;28;20104;-62
2021/04/29 11:53:30;;;;;;;49.67;38.63;;;17.20;78.80;;;;;;4964471;28;20043;-63
2021/04/29 11:56:00;;;;;;;43.47;34.83;;;17.20;77.80;;;;;;5031655;28;20037;-63
2021/04/29 11:58:25;;;;;;;40.55;32.92;;;17.10;77.80;;;;;;5050927;28;20503;-62
2021/04/29 12:00:53;;;;;;;40.42;33.00;;;17.00;77.40;;;;;;5056310;28;20096;-61
2021/04/29 12:03:21;;;;;;;38.88;31.65;;;17.10;76.10;;;;;;5060597;28;20040;-62
2021/04/29 12:05:52;;;;;;;42.17;31.35;;;17.00;76.60;;;;;;5050006;28;20040;-62
2021/04/29 12:08:22;;;;;;;37.60;30.73;;;17.00;76.00;;;;;;5047841;28;20029;-63
2021/04/29 12:10:49;;;;;;;52.22;32.85;;;17.00;75.30;;;;;;5041740;28;20029;-63
2021/04/29 12:13:17;;;;;;;50.30;32.33;;;17.10;75.30;;;;;;5044914;28;20029;-62
2021/04/29 12:15:42;;;;;;;41.88;30.27;;;17.20;75.10;;;;;;5053900;28;20482;-62
2021/04/29 12:18:14;;;;;;;37.83;29.63;;;17.20;74.30;;;;;;5045191;28;20036;-62
2021/04/29 12:20:41;;;;;;;43.03;30.17;;;17.20;73.30;;;;;;5042425;28;20033;-62
2021/04/29 12:23:09;;;;;;;36.88;29.00;;;17.20;73.60;;;;;;5057309;28;20051;-62
2021/04/29 12:25:35;;;;;;;37.92;31.33;;;17.30;73.40;;;;;;5057999;28;20119;-62
2021/04/29 12:28:11;;;;;;;39.08;32.33;;;17.20;73.20;;;;;;5050330;28;20597;-62